KBPG

Big Spring Mc Mahon-Wrinkle Airport

Big Spring, Texas, USA
METAR KBPG 150315Z AUTO 16013KT 10SM CLR 27/18 A2998 RMK AO2 T02680180
Observed Flight Rules
Aug-15 @ 03:15 UTC (21 minutes ago) Visual Flight Rules
Wind Visibility Clouds
160° at 13 knots 10 miles
  • Clear skies
Temperatures Readings
Current 27°C / 81°F
Dewpoint 18°C / 64°F
Humidity 58%
Altimeter 29.98" Hg
Pressure 1015 hPa
Elevation 784
METAR KBPG 150315Z AUTO 16013KT 10SM CLR 27/18 A2998 RMK AO2 T02680180
Observed Flight Rules
Aug-15 @ 03:15 UTC
(21 minutes ago)
VFR
Wind Visibility
160° at 13 knots 10 miles
Clouds
  • Clear skies
Temperature Dewpoint
27°C / 81°F 18°C / 64°F
Humidity Altimeter Pressure
58% 29.98" Hg 1015 hPa